Time;durP1;ratioP1;P1;durP2;ratioP2;P2;SDS_P1;SDS_P2;PMS_P1;PMS_P2;Temp;Humidity;BMP_temperature;BMP_pressure;BME280_temperature;BME280_humidity;BME280_pressure;Samples;Min_cycle;Max_cycle;Signal;HPM_P1;HPM_P2
2021/08/09 00:00:12;;;;;;;2.78;1.10;;;;;;;14.39;nan;100660.75;5050423;28;20045;-75
2021/08/09 00:02:38;;;;;;;3.28;1.20;;;;;;;14.37;nan;100673.41;5050741;28;20571;-75
2021/08/09 00:05:04;;;;;;;1.98;1.30;;;;;;;14.37;nan;100679.56;5050322;28;20580;-75
2021/08/09 00:07:29;;;;;;;2.22;1.13;;;;;;;14.35;nan;100680.72;5050487;28;20036;-75
2021/08/09 00:09:55;;;;;;;2.47;1.50;;;;;;;14.30;nan;100677.75;5050311;28;20258;-75
2021/08/09 00:12:20;;;;;;;1.95;1.25;;;;;;;14.29;nan;100673.44;5050450;28;20071;-75
2021/08/09 00:14:45;;;;;;;2.13;1.17;;;;;;;14.27;nan;100680.75;5048531;28;20039;-75
2021/08/09 00:17:11;;;;;;;2.00;1.30;;;;;;;14.29;nan;100676.09;5049162;28;20041;-76
2021/08/09 00:19:37;;;;;;;2.22;1.40;;;;;;;14.21;nan;100674.31;5050462;28;20115;-75
2021/08/09 00:22:02;;;;;;;2.85;1.38;;;;;;;14.15;nan;100675.81;5049372;28;20551;-75
2021/08/09 00:24:28;;;;;;;2.22;1.50;;;;;;;14.12;nan;100678.00;5050140;28;20036;-75
2021/08/09 00:26:54;;;;;;;2.35;1.38;;;;;;;14.12;nan;100684.13;5050535;28;20182;-75
2021/08/09 00:29:19;;;;;;;3.15;1.30;;;;;;;14.15;nan;100680.31;5050021;28;20491;-75
2021/08/09 00:31:44;;;;;;;2.72;1.58;;;;;;;14.18;nan;100693.25;5049987;28;20032;-75
2021/08/09 00:34:10;;;;;;;2.35;1.10;;;;;;;14.22;nan;100687.41;5049885;28;20040;-75
2021/08/09 00:36:35;;;;;;;1.90;1.10;;;;;;;14.25;nan;100678.25;5049073;28;20471;-75
2021/08/09 00:39:00;;;;;;;1.80;1.17;;;;;;;14.26;nan;100671.97;5050886;28;20078;-76
2021/08/09 00:41:26;;;;;;;3.17;1.23;;;;;;;14.17;nan;100668.50;5050885;28;20036;-76
2021/08/09 00:43:51;;;;;;;2.60;1.35;;;;;;;14.07;nan;100662.56;5050765;28;20421;-75
2021/08/09 00:46:16;;;;;;;2.85;1.23;;;;;;;14.14;nan;100660.03;5049141;28;20413;-76
2021/08/09 00:48:42;;;;;;;3.00;1.30;;;;;;;14.08;nan;100666.84;5050019;28;20029;-76
2021/08/09 00:51:09;;;;;;;3.00;1.35;;;;;;;14.01;nan;100664.06;5051120;28;20048;-76
2021/08/09 00:53:34;;;;;;;2.40;1.50;;;;;;;13.90;nan;100661.78;5050551;28;20111;-76
2021/08/09 00:56:02;;;;;;;3.08;1.33;;;;;;;13.81;nan;100663.63;5050829;28;20109;-76
2021/08/09 00:58:27;;;;;;;3.45;1.63;;;;;;;13.73;nan;100670.75;5049812;28;20029;-76
2021/08/09 01:00:52;;;;;;;2.08;1.45;;;;;;;13.72;nan;100661.16;5050282;28;20021;-76
2021/08/09 01:03:18;;;;;;;2.97;1.67;;;;;;;13.67;nan;100666.97;5050637;28;20102;-76
2021/08/09 01:05:43;;;;;;;1.75;1.30;;;;;;;13.76;nan;100665.94;5050488;28;20481;-75
2021/08/09 01:08:32;;;;;;;2.10;1.23;;;;;;;13.83;nan;100670.59;5049846;28;20033;-76
2021/08/09 01:11:15;;;;;;;2.55;1.27;;;;;;;13.78;nan;100669.28;5050374;28;20604;-75
2021/08/09 01:14:01;;;;;;;3.30;1.30;;;;;;;13.78;nan;100658.66;5049811;28;20037;-75
2021/08/09 01:16:30;;;;;;;2.20;1.40;;;;;;;13.86;nan;100660.44;5049771;28;20041;-76
2021/08/09 01:19:00;;;;;;;2.65;1.48;;;;;;;13.90;nan;100658.28;5048636;28;20033;-75
2021/08/09 01:21:31;;;;;;;2.63;1.33;;;;;;;13.92;nan;100656.28;5054072;28;20037;-75
2021/08/09 01:24:11;;;;;;;2.70;1.52;;;;;;;13.84;nan;100654.47;5053381;28;20116;-75
2021/08/09 01:26:49;;;;;;;4.53;1.58;;;;;;;13.79;nan;100660.28;5033955;28;20037;-75
2021/08/09 01:29:21;;;;;;;4.35;1.65;;;;;;;13.77;nan;100656.97;5013931;28;20502;-75
2021/08/09 01:31:49;;;;;;;3.33;1.50;;;;;;;13.87;nan;100655.97;5013985;28;20097;-75
2021/08/09 01:34:16;;;;;;;3.13;1.45;;;;;;;13.90;nan;100661.78;5014207;28;20494;-75
2021/08/09 01:36:45;;;;;;;3.63;1.30;;;;;;;13.94;nan;100670.22;5015373;28;20038;-75
2021/08/09 01:39:12;;;;;;;2.65;1.45;;;;;;;13.93;nan;100666.75;5014140;28;20373;-75
2021/08/09 01:41:39;;;;;;;2.58;1.35;;;;;;;13.90;nan;100669.75;5006844;28;20041;-75
2021/08/09 01:44:05;;;;;;;2.60;1.42;;;;;;;13.80;nan;100669.94;5038489;28;20072;-75
2021/08/09 01:46:32;;;;;;;2.45;1.30;;;;;;;13.84;nan;100670.41;5053362;28;20055;-75
2021/08/09 01:48:58;;;;;;;3.72;1.40;;;;;;;13.85;nan;100673.91;5053320;28;20497;-75
2021/08/09 01:51:23;;;;;;;3.20;1.20;;;;;;;13.88;nan;100687.69;5053601;28;20086;-75
2021/08/09 01:53:49;;;;;;;2.40;1.30;;;;;;;13.88;nan;100679.72;5053360;28;20120;-75
2021/08/09 01:56:15;;;;;;;3.50;1.40;;;;;;;13.79;nan;100670.91;5040000;28;20025;-75
2021/08/09 01:58:40;;;;;;;2.83;1.48;;;;;;;13.71;nan;100676.25;5032144;28;20030;-75
2021/08/09 02:01:06;;;;;;;3.33;1.58;;;;;;;13.64;nan;100687.75;5013834;28;20061;-75
2021/08/09 02:03:32;;;;;;;3.15;1.50;;;;;;;13.64;nan;100677.94;4995533;28;20038;-75
2021/08/09 02:05:57;;;;;;;1.95;1.50;;;;;;;13.63;nan;100681.56;4995758;28;20045;-75
2021/08/09 02:08:23;;;;;;;3.42;1.42;;;;;;;13.60;nan;100676.59;5017344;28;20036;-75
2021/08/09 02:10:55;;;;;;;1.92;1.35;;;;;;;13.62;nan;100687.91;5033173;28;20526;-75
2021/08/09 02:13:27;;;;;;;3.25;1.33;;;;;;;13.63;nan;100688.72;5014810;28;20041;-75
2021/08/09 02:16:01;;;;;;;2.13;1.45;;;;;;;13.58;nan;100694.53;5031721;28;20033;-75
2021/08/09 02:18:45;;;;;;;2.35;1.58;;;;;;;13.57;nan;100700.84;5052219;28;20040;-76
2021/08/09 02:21:16;;;;;;;2.10;1.23;;;;;;;13.53;nan;100702.19;5053125;28;20112;-75
2021/08/09 02:23:48;;;;;;;3.55;1.38;;;;;;;13.52;nan;100698.69;5052579;28;20041;-75
2021/08/09 02:26:20;;;;;;;2.00;1.20;;;;;;;13.50;nan;100697.22;5052619;28;20029;-75
2021/08/09 02:28:49;;;;;;;2.90;1.40;;;;;;;13.48;nan;100696.53;5052611;28;20498;-75
2021/08/09 02:31:15;;;;;;;3.20;1.40;;;;;;;13.50;nan;100698.03;5051783;28;20040;-75
2021/08/09 02:33:41;;;;;;;2.33;1.20;;;;;;;13.51;nan;100698.84;5051241;28;20033;-75
2021/08/09 02:36:08;;;;;;;2.92;1.40;;;;;;;13.52;nan;100698.69;5052418;28;20077;-75
2021/08/09 02:38:34;;;;;;;3.45;1.35;;;;;;;13.49;nan;100696.38;5052367;28;20039;-75
2021/08/09 02:41:01;;;;;;;2.45;1.20;;;;;;;13.46;nan;100698.53;5052546;28;20029;-75
2021/08/09 02:43:27;;;;;;;1.58;1.17;;;;;;;13.40;nan;100694.72;5052448;28;20501;-75
2021/08/09 02:45:54;;;;;;;2.15;1.30;;;;;;;13.38;nan;100694.88;5052412;28;20408;-75
2021/08/09 02:48:20;;;;;;;3.40;1.60;;;;;;;13.32;nan;100695.56;5051885;28;20029;-75
2021/08/09 02:50:47;;;;;;;2.72;1.40;;;;;;;13.28;nan;100688.09;5050995;28;20044;-75
2021/08/09 02:53:17;;;;;;;2.22;1.40;;;;;;;13.27;nan;100681.06;5052601;28;20036;-75
2021/08/09 02:55:44;;;;;;;1.55;1.20;;;;;;;13.24;nan;100687.53;5052161;28;20085;-75
2021/08/09 02:58:09;;;;;;;2.25;1.50;;;;;;;13.22;nan;100680.75;5051540;28;20435;-75
2021/08/09 03:00:37;;;;;;;2.45;1.20;;;;;;;13.16;nan;100674.28;5051967;28;20033;-75
2021/08/09 03:03:03;;;;;;;2.17;1.20;;;;;;;13.15;nan;100677.91;5052062;28;20026;-75
2021/08/09 03:05:30;;;;;;;1.33;1.17;;;;;;;13.14;nan;100676.25;5052127;28;20056;-75
2021/08/09 03:07:57;;;;;;;3.08;1.45;;;;;;;13.12;nan;100670.28;5050616;28;20492;-75
2021/08/09 03:10:22;;;;;;;1.83;1.35;;;;;;;13.13;nan;100669.28;5050030;28;20056;-75
2021/08/09 03:12:58;;;;;;;3.50;1.60;;;;;;;13.17;nan;100668.78;5052319;28;20110;-75
2021/08/09 03:15:24;;;;;;;2.42;1.40;;;;;;;13.17;nan;100679.41;5052036;28;20025;-75
2021/08/09 03:17:49;;;;;;;2.85;1.30;;;;;;;13.17;nan;100681.22;5051732;28;20056;-75
2021/08/09 03:20:15;;;;;;;2.00;1.30;;;;;;;13.13;nan;100682.53;5051314;28;20132;-76
2021/08/09 03:22:40;;;;;;;1.85;1.30;;;;;;;13.16;nan;100690.19;5052124;28;20045;-75
2021/08/09 03:25:06;;;;;;;3.13;1.20;;;;;;;13.12;nan;100694.16;5051896;28;20033;-75
2021/08/09 03:27:31;;;;;;;2.95;1.40;;;;;;;13.16;nan;100699.00;5050970;28;20033;-75
2021/08/09 03:29:57;;;;;;;1.35;1.00;;;;;;;13.19;nan;100697.84;5051789;28;20047;-75
2021/08/09 03:32:22;;;;;;;2.67;1.23;;;;;;;13.17;nan;100697.16;5051275;28;20039;-75
2021/08/09 03:34:47;;;;;;;2.67;1.20;;;;;;;13.17;nan;100699.81;5051391;28;20033;-75
2021/08/09 03:37:13;;;;;;;2.30;1.10;;;;;;;13.17;nan;100705.13;5051205;28;20033;-75
2021/08/09 03:39:38;;;;;;;1.45;1.00;;;;;;;13.22;nan;100709.94;5051896;28;20025;-75
2021/08/09 03:42:03;;;;;;;2.67;1.23;;;;;;;13.22;nan;100704.63;5049592;28;20064;-75
2021/08/09 03:44:29;;;;;;;2.00;1.23;;;;;;;13.29;nan;100701.19;5051410;28;20029;-75
2021/08/09 03:46:54;;;;;;;1.42;1.10;;;;;;;13.34;nan;100706.00;5052714;28;20375;-75
2021/08/09 03:49:19;;;;;;;1.63;1.00;;;;;;;13.35;nan;100699.72;5051169;28;20037;-75
2021/08/09 03:51:45;;;;;;;2.70;1.38;;;;;;;13.42;nan;100705.16;5052116;28;20037;-75
2021/08/09 03:54:10;;;;;;;6.63;2.10;;;;;;;13.51;nan;100697.03;5051793;28;20082;-75
2021/08/09 03:56:36;;;;;;;3.33;1.42;;;;;;;13.65;nan;100690.22;5052811;28;20032;-75
2021/08/09 03:59:01;;;;;;;2.58;1.50;;;;;;;13.65;nan;100687.56;5052031;28;20032;-74
2021/08/09 04:01:27;;;;;;;2.53;1.58;;;;;;;13.60;nan;100701.34;5051481;28;20025;-74
2021/08/09 04:03:52;;;;;;;1.85;1.20;;;;;;;13.60;nan;100704.00;5051036;28;20052;-74
2021/08/09 04:06:18;;;;;;;1.83;1.20;;;;;;;13.65;nan;100705.34;5050751;28;20405;-74
2021/08/09 04:08:44;;;;;;;2.25;1.25;;;;;;;13.68;nan;100702.34;5051332;28;20025;-74
2021/08/09 04:11:09;;;;;;;2.28;1.40;;;;;;;13.77;nan;100704.81;5050601;28;20409;-74
2021/08/09 04:13:34;;;;;;;2.40;1.48;;;;;;;13.86;nan;100702.97;5051950;28;20041;-74
2021/08/09 04:16:01;;;;;;;2.65;1.60;;;;;;;13.97;nan;100701.81;5051421;28;20040;-74
2021/08/09 04:18:26;;;;;;;2.65;1.48;;;;;;;14.14;nan;100697.28;5051298;28;20033;-74
2021/08/09 04:20:51;;;;;;;4.40;1.83;;;;;;;14.29;nan;100690.22;5049530;28;20083;-74
2021/08/09 04:23:17;;;;;;;3.53;2.00;;;;;;;14.39;nan;100677.53;5051271;28;20029;-75
2021/08/09 04:25:42;;;;;;;3.78;1.88;;;;;;;14.47;nan;100679.38;5050935;28;20406;-74
2021/08/09 04:28:07;;;;;;;3.25;1.63;;;;;;;14.57;nan;100682.66;5048807;28;20061;-74
2021/08/09 04:30:32;;;;;;;3.90;2.10;;;;;;;14.65;nan;100682.59;5050575;28;20120;-74
2021/08/09 04:33:01;;;;;;;3.30;1.60;;;;;;;14.70;nan;100674.09;5050837;28;20270;-74
2021/08/09 04:35:26;;;;;;;2.35;1.48;;;;;;;14.76;nan;100670.75;5050688;28;20348;-74
2021/08/09 04:37:52;;;;;;;3.08;1.70;;;;;;;14.80;nan;100665.88;5050992;28;20156;-74
2021/08/09 04:40:17;;;;;;;3.58;1.70;;;;;;;14.91;nan;100670.81;5050377;28;20529;-74
2021/08/09 04:42:44;;;;;;;3.45;1.80;;;;;;;14.92;nan;100672.50;5051087;28;20151;-74
2021/08/09 04:45:09;;;;;;;3.67;1.70;;;;;;;14.99;nan;100662.78;5062270;28;20037;-74
2021/08/09 04:47:35;;;;;;;3.30;1.58;;;;;;;15.04;nan;100675.53;5050585;28;20378;-74
2021/08/09 04:50:00;;;;;;;2.67;1.73;;;;;;;15.06;nan;100678.88;5050212;28;20045;-74
2021/08/09 04:52:25;;;;;;;2.30;1.70;;;;;;;15.05;nan;100680.72;5050275;28;20043;-74
2021/08/09 04:54:50;;;;;;;3.63;1.50;;;;;;;15.02;nan;100689.06;5049814;28;20029;-74
2021/08/09 04:57:16;;;;;;;2.15;1.42;;;;;;;15.05;nan;100678.03;5050545;28;20033;-74
2021/08/09 04:59:41;;;;;;;2.65;1.40;;;;;;;15.13;nan;100682.47;5049340;28;20033;-74
2021/08/09 05:02:06;;;;;;;3.75;1.63;;;;;;;15.21;nan;100689.59;5049955;28;20089;-75
2021/08/09 05:04:32;;;;;;;3.85;1.67;;;;;;;15.24;nan;100702.56;5050594;28;20029;-74
2021/08/09 05:06:57;;;;;;;3.95;1.80;;;;;;;15.28;nan;100698.53;5050422;28;20117;-74
2021/08/09 05:09:22;;;;;;;3.05;1.48;;;;;;;15.34;nan;100697.81;5037046;28;20481;-74
2021/08/09 05:11:48;;;;;;;2.25;1.60;;;;;;;15.34;nan;100699.66;5030733;28;20113;-74
2021/08/09 05:14:13;;;;;;;3.03;1.60;;;;;;;15.38;nan;100696.44;5029810;28;20043;-74
2021/08/09 05:16:40;;;;;;;2.50;1.50;;;;;;;15.43;nan;100703.91;5030382;28;20037;-74
2021/08/09 05:19:05;;;;;;;3.17;1.45;;;;;;;15.41;nan;100698.75;5029863;28;20140;-74
2021/08/09 05:21:32;;;;;;;2.17;1.25;;;;;;;15.50;nan;100700.34;5030744;28;20041;-74
2021/08/09 05:24:02;;;;;;;2.90;1.35;;;;;;;15.62;nan;100690.06;5030090;28;20116;-74
2021/08/09 05:26:28;;;;;;;3.67;1.40;;;;;;;15.75;nan;100689.47;5030920;28;20060;-74
2021/08/09 05:28:54;;;;;;;3.30;1.40;;;;;;;15.96;nan;100701.28;5047150;28;20048;-74
2021/08/09 05:31:20;;;;;;;3.20;1.25;;;;;;;16.18;nan;100695.03;5048844;28;20502;-74
2021/08/09 05:33:45;;;;;;;3.38;1.40;;;;;;;16.40;nan;100697.75;5049813;28;20041;-74
2021/08/09 05:36:11;;;;;;;4.03;1.30;;;;;;;16.48;nan;100700.34;5049700;28;20313;-74
2021/08/09 05:38:37;;;;;;;3.80;1.40;;;;;;;16.46;nan;100697.84;5049730;28;20025;-74
2021/08/09 05:41:03;;;;;;;2.92;1.20;;;;;;;16.38;nan;100694.47;5049737;28;20037;-75
2021/08/09 05:43:29;;;;;;;2.13;1.25;;;;;;;16.32;nan;100704.84;5050329;28;20063;-75
2021/08/09 05:45:54;;;;;;;3.42;1.23;;;;;;;16.65;nan;100706.31;5048552;28;20037;-74
2021/08/09 05:48:19;;;;;;;2.58;1.35;;;;;;;16.99;nan;100711.03;5049809;28;20518;-74
2021/08/09 05:50:44;;;;;;;2.40;1.30;;;;;;;17.09;nan;100706.22;5049753;28;20123;-75
2021/08/09 05:53:10;;;;;;;2.55;1.15;;;;;;;17.64;nan;100701.16;5050481;28;20036;-75
2021/08/09 05:55:35;;;;;;;2.55;1.30;;;;;;;18.04;nan;100702.28;5050655;28;20129;-74
2021/08/09 05:58:01;;;;;;;2.65;1.10;;;;;;;18.42;nan;100699.22;5050266;28;20044;-75
2021/08/09 06:00:26;;;;;;;4.05;1.33;;;;;;;18.96;nan;100702.91;5049850;28;20102;-75
2021/08/09 06:02:51;;;;;;;2.55;1.08;;;;;;;19.26;nan;100706.06;5050574;28;20104;-75
2021/08/09 06:05:17;;;;;;;3.72;1.30;;;;;;;19.63;nan;100709.16;5049848;28;20040;-75
2021/08/09 06:07:42;;;;;;;2.83;1.20;;;;;;;19.81;nan;100707.75;5052447;28;20040;-75
2021/08/09 06:10:08;;;;;;;1.70;0.98;;;;;;;20.24;nan;100704.56;5045893;28;20045;-75
2021/08/09 06:12:34;;;;;;;3.25;1.10;;;;;;;20.64;nan;100702.59;5033875;28;20029;-75
2021/08/09 06:15:00;;;;;;;3.58;1.25;;;;;;;21.02;nan;100693.69;5033600;28;20033;-75
2021/08/09 06:17:25;;;;;;;2.97;1.48;;;;;;;21.21;nan;100692.75;5032383;28;20498;-75
2021/08/09 06:19:50;;;;;;;2.63;1.08;;;;;;;21.27;nan;100696.41;5045357;28;20493;-75
2021/08/09 06:22:16;;;;;;;3.35;1.23;;;;;;;21.50;nan;100695.00;5053612;28;20397;-75
2021/08/09 06:24:41;;;;;;;2.95;1.38;;;;;;;21.72;nan;100693.59;5051873;28;20029;-75
2021/08/09 06:27:06;;;;;;;2.85;1.40;;;;;;;21.70;nan;100692.16;5053691;28;20537;-74
2021/08/09 06:29:32;;;;;;;1.60;1.08;;;;;;;21.90;nan;100694.66;5052110;28;20112;-75
2021/08/09 06:31:57;;;;;;;2.88;1.08;;;;;;;22.16;nan;100693.56;5052120;28;20497;-75
2021/08/09 06:34:22;;;;;;;2.20;1.08;;;;;;;22.42;nan;100689.75;5051912;28;20080;-75
2021/08/09 06:36:48;;;;;;;4.55;1.15;;;;;;;22.57;nan;100701.00;5052695;28;20496;-75
2021/08/09 06:39:18;;;;;;;1.98;1.00;;;;;;;22.67;nan;100698.56;5052074;28;20029;-76
2021/08/09 06:41:43;;;;;;;1.90;1.00;;;;;;;22.63;nan;100704.63;5051470;28;20401;-75
2021/08/09 06:44:09;;;;;;;2.33;0.90;;;;;;;22.64;nan;100715.22;5050729;28;20472;-76
2021/08/09 06:46:34;;;;;;;2.35;1.10;;;;;;;23.09;nan;100720.19;5051572;28;20090;-75
2021/08/09 06:48:59;;;;;;;2.00;0.93;;;;;;;23.32;nan;100722.13;5052132;28;20111;-75
2021/08/09 06:51:25;;;;;;;1.50;0.88;;;;;;;23.83;nan;100727.97;5051916;28;20033;-75
2021/08/09 06:53:50;;;;;;;3.42;1.00;;;;;;;24.20;nan;100724.22;5052362;28;20030;-75
2021/08/09 06:56:15;;;;;;;2.90;0.90;;;;;;;24.04;nan;100728.44;5051905;28;20037;-75
2021/08/09 06:58:44;;;;;;;1.90;0.87;;;;;;;24.31;nan;100729.59;5052253;28;20397;-75
2021/08/09 07:01:09;;;;;;;2.00;1.00;;;;;;;24.55;nan;100733.09;5052142;28;20272;-76
2021/08/09 07:03:34;;;;;;;2.10;1.08;;;;;;;24.92;nan;100721.91;5051744;28;20553;-75
2021/08/09 07:06:00;;;;;;;1.85;0.90;;;;;;;25.01;nan;100730.44;5052062;28;20025;-76
2021/08/09 07:08:25;;;;;;;2.72;1.10;;;;;;;24.57;nan;100730.13;5051235;28;20410;-76
2021/08/09 07:10:53;;;;;;;3.08;1.00;;;;;;;24.97;nan;100724.69;5051493;28;20037;-76
2021/08/09 07:13:19;;;;;;;3.70;0.90;;;;;;;25.19;nan;100727.56;5052020;28;20513;-76
2021/08/09 07:15:44;;;;;;;2.75;1.00;;;;;;;25.07;nan;100717.81;5051426;28;20029;-76
2021/08/09 07:18:10;;;;;;;3.10;1.00;;;;;;;25.20;nan;100714.84;5050549;28;20044;-77
2021/08/09 07:20:35;;;;;;;4.57;1.10;;;;;;;25.01;nan;100714.22;5051301;28;20068;-76
2021/08/09 07:23:01;;;;;;;3.58;1.00;;;;;;;25.19;nan;100722.16;5051337;28;20068;-76
2021/08/09 07:25:26;;;;;;;2.15;1.00;;;;;;;24.95;nan;100724.09;5051487;28;20086;-76
2021/08/09 07:27:52;;;;;;;2.35;0.90;;;;;;;25.75;nan;100716.81;5051182;28;20425;-76
2021/08/09 07:30:18;;;;;;;2.35;0.90;;;;;;;25.68;nan;100718.06;5051260;28;20118;-76
2021/08/09 07:32:44;;;;;;;2.17;0.95;;;;;;;25.45;nan;100717.16;5051341;28;20238;-76
2021/08/09 07:35:10;;;;;;;3.33;1.15;;;;;;;25.66;nan;100718.31;5051587;28;20131;-76
2021/08/09 07:37:35;;;;;;;4.13;1.05;;;;;;;26.05;nan;100726.47;5051256;28;20389;-76
2021/08/09 07:40:00;;;;;;;2.58;1.00;;;;;;;26.09;nan;100733.03;5051700;28;20528;-76
2021/08/09 07:42:26;;;;;;;2.35;1.05;;;;;;;25.58;nan;100716.03;5050683;28;20402;-76
2021/08/09 07:44:52;;;;;;;3.83;1.30;;;;;;;25.89;nan;100714.63;5049814;28;20029;-75
2021/08/09 07:47:18;;;;;;;1.90;0.80;;;;;;;25.99;nan;100724.78;5048611;28;20401;-76
2021/08/09 07:49:44;;;;;;;4.23;0.90;;;;;;;26.17;nan;100724.50;5049854;28;20969;-75
2021/08/09 07:52:09;;;;;;;4.03;1.00;;;;;;;26.15;nan;100715.81;5050683;28;20405;-76
2021/08/09 07:54:34;;;;;;;1.95;0.88;;;;;;;26.27;nan;100724.63;5050377;28;20033;-75
2021/08/09 07:57:04;;;;;;;2.78;0.90;;;;;;;26.45;nan;100728.91;5051132;28;20081;-75
2021/08/09 07:59:30;;;;;;;3.08;1.10;;;;;;;26.70;nan;100727.63;5050774;28;20048;-76
2021/08/09 08:02:02;;;;;;;3.15;1.00;;;;;;;26.67;nan;100725.38;5050869;28;20033;-76
2021/08/09 08:04:31;;;;;;;2.03;0.90;;;;;;;26.05;nan;100721.91;5049820;28;20505;-76
2021/08/09 08:06:56;;;;;;;2.35;0.90;;;;;;;26.19;nan;100716.09;5049312;28;20074;-76
2021/08/09 08:09:21;;;;;;;4.15;1.10;;;;;;;26.47;nan;100724.06;5050814;28;20468;-76
2021/08/09 08:11:47;;;;;;;3.55;0.80;;;;;;;26.54;nan;100720.38;5051242;28;20107;-77
2021/08/09 08:14:13;;;;;;;2.90;1.08;;;;;;;26.20;nan;100724.00;5049844;28;20037;-76
2021/08/09 08:16:39;;;;;;;3.33;1.05;;;;;;;26.49;nan;100730.03;5049857;28;20029;-76
2021/08/09 08:19:04;;;;;;;3.30;1.05;;;;;;;27.01;nan;100720.63;5050358;28;20040;-76
2021/08/09 08:21:30;;;;;;;3.03;0.93;;;;;;;27.19;nan;100710.44;5048854;28;20033;-76
2021/08/09 08:23:55;;;;;;;2.42;1.00;;;;;;;27.26;nan;100711.09;5050957;28;20037;-76
2021/08/09 08:26:20;;;;;;;2.00;0.98;;;;;;;27.38;nan;100710.91;5049159;28;20481;-76
2021/08/09 08:28:46;;;;;;;2.03;0.80;;;;;;;27.64;nan;100710.03;5048981;28;20389;-76
2021/08/09 08:31:11;;;;;;;2.90;0.90;;;;;;;27.82;nan;100719.66;5048583;28;20045;-74
2021/08/09 08:33:36;;;;;;;1.92;0.90;;;;;;;28.00;nan;100721.16;5050610;28;20037;-75
2021/08/09 08:36:02;;;;;;;2.10;0.70;;;;;;;27.72;nan;100720.41;5046723;28;20039;-76
2021/08/09 08:38:27;;;;;;;1.90;0.77;;;;;;;27.82;nan;100711.50;5037669;28;20037;-76
2021/08/09 08:40:53;;;;;;;2.80;0.80;;;;;;;28.43;nan;100719.19;5032055;28;20026;-75
2021/08/09 08:43:24;;;;;;;2.08;0.82;;;;;;;28.68;nan;100721.22;5048961;28;20040;-76
2021/08/09 08:45:58;;;;;;;2.33;0.80;;;;;;;28.48;nan;100724.66;5050490;28;20635;-76
2021/08/09 08:48:24;;;;;;;2.95;0.77;;;;;;;29.00;nan;100731.88;5048977;28;20039;-76
2021/08/09 08:50:51;;;;;;;1.90;0.90;;;;;;;28.51;nan;100728.78;5050254;28;20099;-75
2021/08/09 08:53:17;;;;;;;2.63;1.00;;;;;;;28.40;nan;100736.03;5049604;28;20087;-76
2021/08/09 08:55:43;;;;;;;1.98;0.80;;;;;;;28.94;nan;100738.41;5048291;28;20408;-76
2021/08/09 08:58:09;;;;;;;3.13;0.90;;;;;;;28.98;nan;100735.97;5046672;28;20116;-75
2021/08/09 09:00:36;;;;;;;1.98;1.00;;;;;;;29.10;nan;100750.16;5046674;28;20098;-76
2021/08/09 09:03:05;;;;;;;2.08;0.85;;;;;;;29.30;nan;100743.94;5050318;28;20029;-76
2021/08/09 09:05:32;;;;;;;3.45;1.33;;;;;;;29.39;nan;100738.75;5049792;28;20090;-75
2021/08/09 09:07:59;;;;;;;2.13;0.90;;;;;;;29.24;nan;100741.47;5049416;28;20497;-76
2021/08/09 09:10:29;;;;;;;4.90;1.27;;;;;;;29.65;nan;100734.09;5050338;28;20120;-76
2021/08/09 09:13:10;;;;;;;;;;;;;;;29.79;nan;100743.38;5048884;28;20067;-77
2021/08/09 09:16:00;;;;;;;2.90;0.90;;;;;;;29.95;nan;100748.81;5049854;28;19917;-76
2021/08/09 09:18:41;;;;;;;2.50;0.90;;;;;;;29.75;nan;100738.78;5048882;28;20041;-77
2021/08/09 09:21:10;;;;;;;2.58;0.95;;;;;;;29.52;nan;100751.03;5049738;28;20124;-76
2021/08/09 09:23:35;;;;;;;3.22;0.90;;;;;;;28.78;nan;100744.91;5051180;28;20049;-77
2021/08/09 09:26:17;;;;;;;;;;;;;;;28.28;nan;100744.41;5050938;28;20037;-76
2021/08/09 09:28:43;;;;;;;1.35;0.80;;;;;;;28.48;nan;100749.16;5044626;28;19966;-76
2021/08/09 09:31:13;;;;;;;2.40;0.80;;;;;;;28.52;nan;100747.53;5029904;28;20045;-76
2021/08/09 09:33:46;;;;;;;1.48;0.90;;;;;;;28.16;nan;100741.91;5029925;28;20458;-77
2021/08/09 09:36:12;;;;;;;1.55;0.80;;;;;;;27.92;nan;100744.22;5030673;28;20028;-76
2021/08/09 09:38:42;;;;;;;2.08;0.98;;;;;;;28.01;nan;100747.28;5046956;28;20037;-75
2021/08/09 09:41:07;;;;;;;1.92;0.90;;;;;;;26.84;nan;100741.59;5022747;28;20065;-77
2021/08/09 09:43:44;;;;;;;1.42;0.70;;;;;;;26.99;nan;100738.22;5028208;28;20475;-76
2021/08/09 09:46:28;;;;;;;3.47;0.90;;;;;;;27.57;nan;100744.75;5043520;28;20045;-76
2021/08/09 09:49:00;;;;;;;2.30;0.85;;;;;;;27.47;nan;100739.25;5049474;28;20044;-77
2021/08/09 09:51:26;;;;;;;2.65;1.00;;;;;;;27.45;nan;100739.50;5050650;28;20045;-77
2021/08/09 09:53:51;;;;;;;2.63;0.75;;;;;;;27.66;nan;100731.50;5042041;28;20087;-75
2021/08/09 09:56:18;;;;;;;2.20;0.90;;;;;;;27.14;nan;100732.94;5049037;28;20049;-76
2021/08/09 09:58:44;;;;;;;3.22;0.88;;;;;;;27.09;nan;100730.19;5052546;28;20041;-75
2021/08/09 10:01:10;;;;;;;2.08;0.70;;;;;;;27.23;nan;100736.84;5060389;28;20094;-76
2021/08/09 10:03:37;;;;;;;1.70;0.65;;;;;;;26.82;nan;100732.91;5057501;28;20041;-76
2021/08/09 10:06:04;;;;;;;1.90;0.90;;;;;;;27.18;nan;100734.06;5049368;28;20058;-76
2021/08/09 10:08:43;;;;;;;1.30;0.70;;;;;;;27.42;nan;100736.47;5049788;28;20064;-75
2021/08/09 10:11:09;;;;;;;2.42;0.90;;;;;;;27.26;nan;100739.06;5049170;28;20048;-76
2021/08/09 10:13:37;;;;;;;2.10;0.80;;;;;;;27.14;nan;100729.41;5048808;28;20135;-77
2021/08/09 10:16:06;;;;;;;1.80;0.70;;;;;;;27.05;nan;100735.31;5048667;28;20405;-75
2021/08/09 10:18:40;;;;;;;1.70;0.77;;;;;;;27.42;nan;100736.47;5048574;28;20409;-75
2021/08/09 10:21:06;;;;;;;1.95;0.70;;;;;;;27.22;nan;100728.97;5046564;28;20084;-76
2021/08/09 10:23:45;;;;;;;2.88;0.80;;;;;;;26.86;nan;100729.44;5030501;28;20033;-77
2021/08/09 10:26:20;;;;;;;1.77;0.80;;;;;;;26.51;nan;100729.81;5048595;28;20047;-76
2021/08/09 10:28:52;;;;;;;2.45;0.80;;;;;;;26.36;nan;100726.88;5049034;28;20128;-77
2021/08/09 10:31:30;;;;;;;2.35;0.80;;;;;;;26.20;nan;100726.69;5047924;28;20128;-76
2021/08/09 10:33:56;;;;;;;3.65;0.80;;;;;;;26.35;nan;100731.50;5048539;28;20041;-76
2021/08/09 10:36:22;;;;;;;;;;;;;;;26.35;nan;100723.38;5066881;28;20040;-76
2021/08/09 10:38:49;;;;;;;;;;;;;;;25.52;nan;100727.81;5057043;28;20360;-76
2021/08/09 10:41:14;;;;;;;;;;;;;;;25.75;nan;100718.72;5050339;28;19931;-76
2021/08/09 10:43:58;;;;;;;;;;;;;;;26.09;nan;100715.97;5043449;28;19921;-76
2021/08/09 10:46:37;;;;;;;;;;;;;;;26.34;nan;100724.44;5040981;28;19960;-76
2021/08/09 10:49:03;;;;;;;2.10;0.90;;;;;;;26.39;nan;100724.50;5048173;28;19928;-77
2021/08/09 10:51:47;;;;;;;;;;;;;;;26.11;nan;100720.06;5048191;28;20167;-76
2021/08/09 10:54:35;;;;;;;2.85;1.00;;;;;;;25.31;nan;100713.13;5029366;28;19917;-76
2021/08/09 10:57:01;;;;;;;2.72;1.00;;;;;;;25.89;nan;100717.34;5048429;28;20112;-75
2021/08/09 10:59:40;;;;;;;2.40;0.98;;;;;;;26.13;nan;100723.34;5049363;28;20047;-74
2021/08/09 11:02:14;;;;;;;2.97;0.82;;;;;;;25.96;nan;100719.88;5055854;28;20036;-76
2021/08/09 11:04:40;;;;;;;2.28;0.85;;;;;;;25.87;nan;100726.78;5048032;28;20112;-76
2021/08/09 11:07:16;;;;;;;2.53;1.08;;;;;;;25.64;nan;100721.25;5048380;28;20039;-75
2021/08/09 11:09:43;;;;;;;2.47;0.80;;;;;;;25.77;nan;100720.09;5048144;28;20048;-76
2021/08/09 11:12:20;;;;;;;2.10;1.05;;;;;;;25.85;nan;100732.41;5046622;28;20100;-76
2021/08/09 11:15:06;;;;;;;2.00;0.80;;;;;;;25.55;nan;100721.91;5048682;28;20094;-76
2021/08/09 11:17:37;;;;;;;2.28;0.90;;;;;;;25.76;nan;100728.47;5047100;28;20045;-76
2021/08/09 11:20:09;;;;;;;1.98;0.80;;;;;;;25.78;nan;100721.72;5048391;28;20048;-76
2021/08/09 11:22:35;;;;;;;2.88;0.80;;;;;;;26.04;nan;100722.13;5047708;28;20045;-76
2021/08/09 11:25:00;;;;;;;3.25;0.85;;;;;;;25.93;nan;100721.16;5048410;28;20402;-76
2021/08/09 11:27:25;;;;;;;3.20;1.27;;;;;;;26.12;nan;100724.41;5046605;28;20037;-77
2021/08/09 11:29:52;;;;;;;2.60;0.85;;;;;;;25.69;nan;100736.75;5048032;28;20048;-76
2021/08/09 11:32:42;;;;;;;3.05;1.30;;;;;;;25.53;nan;100743.00;5044830;28;20045;-77
2021/08/09 11:35:08;;;;;;;2.20;1.02;;;;;;;25.16;nan;100738.84;5047876;28;20045;-76
2021/08/09 11:37:52;;;;;;;2.15;0.90;;;;;;;25.21;nan;100721.91;5035540;28;20033;-75
2021/08/09 11:40:41;;;;;;;1.98;0.80;;;;;;;25.19;nan;100727.56;5046310;28;20322;-75
2021/08/09 11:43:07;;;;;;;2.75;1.05;;;;;;;25.29;nan;100723.38;5046993;28;20045;-76
2021/08/09 11:45:33;;;;;;;3.72;1.00;;;;;;;25.55;nan;100721.91;5046549;28;20108;-75